ADDS METAR Data INFO
IDs: Format: Raw Decoded Include TAF

Data at: 2032 UTC 16 Dec 2017

KM25 162015Z AUTO 19011G14KT 10SM CLR 11/00 A3012 RMK AO2
KM25 161955Z AUTO 19012G16KT 10SM CLR 10/00 A3013 RMK AO2
KM25 161935Z AUTO 20011G15KT 10SM CLR 10/00 A3014 RMK AO2
KM25 161915Z AUTO 20014KT 10SM CLR 10/M01 A3014 RMK AO2
KM25 161855Z AUTO 22013G18KT 10SM CLR 10/M01 A3015 RMK AO2
KM25 161835Z AUTO 22013G19KT 10SM CLR 10/M01 A3015 RMK AO2
KM25 161815Z AUTO 23013G24KT 10SM CLR 10/00 A3016 RMK AO2
KM25 161755Z AUTO 22015G19KT 10SM CLR 09/00 A3017 RMK AO2
KM25 161735Z AUTO 21009G18KT 10SM CLR 08/00 A3018 RMK AO2
KM25 161715Z AUTO 22013KT 10SM CLR 08/00 A3019 RMK AO2
KM25 161655Z AUTO 22009G14KT 10SM CLR 07/00 A3019 RMK AO2
KM25 161635Z AUTO 21010G17KT 10SM CLR 06/00 A3020 RMK AO2
KM25 161615Z AUTO 21010G16KT 10SM CLR 06/00 A3021 RMK AO2
KM25 161555Z AUTO 20012G15KT 10SM CLR 05/M01 A3021 RMK AO2
KM25 161535Z AUTO 20009KT 10SM CLR 04/M01 A3020 RMK AO2
KM25 161515Z AUTO 21008KT 10SM CLR 03/M01 A3019 RMK AO2
KM25 161455Z AUTO 20010KT 10SM CLR 02/M01 A3019 RMK AO2
KM25 161435Z AUTO 20009G14KT 10SM CLR 02/M02 A3019 RMK AO2
KM25 161415Z AUTO 20009KT 10SM CLR 01/M02 A3018 RMK AO2
KM25 161355Z AUTO 19008KT 10SM CLR 00/M02 A3018 RMK AO2
KM25 161335Z AUTO 19008KT 10SM CLR 00/M02 A3017 RMK AO2
KM25 161315Z AUTO 19008KT 10SM CLR 00/M02 A3017 RMK AO2
KM25 161255Z AUTO 19007KT 10SM CLR 00/M02 A3016 RMK AO2
KM25 161235Z AUTO 19007KT 10SM CLR 00/M02 A3016 RMK AO2
KM25 161215Z AUTO 19008KT 10SM CLR 00/M02 A3015 RMK AO2
KM25 161155Z AUTO 20010KT 10SM CLR 00/M02 A3015 RMK AO2
KM25 161135Z AUTO 19007KT 10SM CLR 00/M02 A3015 RMK AO2
KM25 161115Z AUTO 19007KT 10SM CLR 00/M02 A3015 RMK AO2
KM25 161055Z AUTO 17004KT 10SM CLR 00/M03 A3015 RMK AO2
KM25 161035Z AUTO 19005KT 10SM CLR 00/M02 A3016 RMK AO2
KM25 161015Z AUTO 19005KT 10SM CLR 01/M02 A3016 RMK AO2
KM25 160955Z AUTO 20004KT 10SM CLR 01/M02 A3016 RMK AO2
KM25 160935Z AUTO 20006KT 10SM CLR 01/M02 A3016 RMK AO2
KM25 160915Z AUTO 19007KT 10SM CLR 01/M02 A3016 RMK AO2
KM25 160855Z AUTO 20007KT 10SM CLR 01/M02 A3016 RMK AO2
KM25 160835Z AUTO 20008KT 10SM CLR 01/M02 A3017 RMK AO2
KM25 160815Z AUTO 20007KT 10SM CLR 01/M02 A3017 RMK AO2
KM25 160755Z AUTO 20006KT 10SM CLR 01/M02 A3016 RMK AO2
KM25 160735Z AUTO 20006KT 10SM CLR 02/M02 A3016 RMK AO2
KM25 160715Z AUTO 20006KT 10SM CLR 02/M02 A3016 RMK AO2
KM25 160655Z AUTO 21006KT 10SM CLR 02/M02 A3016 RMK AO2
KM25 160635Z AUTO 20008KT 10SM CLR 02/M02 A3016 RMK AO2
KM25 160615Z AUTO 20008KT 10SM CLR 02/M02 A3016 RMK AO2
KM25 160555Z AUTO 20006KT 10SM CLR 02/M02 A3016 RMK AO2
KM25 160535Z AUTO 20007KT 10SM CLR 02/M02 A3016 RMK AO2
KM25 160515Z AUTO 20006KT 10SM CLR 02/M02 A3016 RMK AO2
KM25 160455Z AUTO 20007KT 10SM CLR 02/M02 A3016 RMK AO2
KM25 160435Z AUTO 20006KT 10SM CLR 02/M02 A3016 RMK AO2
KM25 160415Z AUTO 20007KT 10SM CLR 02/M02 A3015 RMK AO2
KM25 160355Z AUTO 20006KT 10SM CLR 02/M02 A3015 RMK AO2
KM25 160335Z AUTO 19006KT 10SM CLR 02/M02 A3015 RMK AO2
KM25 160315Z AUTO 19007KT 10SM CLR 02/M02 A3015 RMK AO2
KM25 160255Z AUTO 19007KT 10SM CLR 02/M02 A3015 RMK AO2
KM25 160235Z AUTO 19006KT 10SM CLR 02/M02 A3016 RMK AO2
KM25 160215Z AUTO 19006KT 10SM CLR 02/M02 A3015 RMK AO2
KM25 160155Z AUTO 18005KT 10SM CLR 02/M02 A3015 RMK AO2
KM25 160135Z AUTO 18004KT 10SM CLR 02/M02 A3015 RMK AO2
KM25 160115Z AUTO 18004KT 10SM CLR 02/M02 A3014 RMK AO2
KM25 160055Z AUTO 19004KT 10SM CLR 03/M02 A3014 RMK AO2
KM25 160035Z AUTO 18004KT 10SM CLR 03/M02 A3014 RMK AO2
KM25 160015Z AUTO 19003KT 10SM CLR 03/M02 A3014 RMK AO2
KM25 152355Z AUTO 19004KT 10SM CLR 04/M02 A3014 RMK AO2
KM25 152335Z AUTO 21005KT 10SM SCT050 05/M02 A3013 RMK AO2
KM25 152315Z AUTO 21005KT 10SM BKN050 05/M02 A3013 RMK AO2
KM25 152255Z AUTO 22005KT 10SM OVC050 06/M02 A3013 RMK AO2
KM25 152235Z AUTO 22006KT 10SM OVC050 06/M03 A3013 RMK AO2
KM25 152215Z AUTO 22006KT 10SM OVC049 06/M03 A3014 RMK AO2
KM25 152155Z AUTO 23006KT 10SM OVC047 06/M03 A3014 RMK AO2
KM25 152135Z AUTO 24006KT 10SM OVC047 06/M03 A3014 RMK AO2
KM25 152115Z AUTO 23008KT 10SM SCT047 06/M03 A3014 RMK AO2
KM25 152055Z AUTO 23008KT 210V290 10SM CLR 06/M03 A3013 RMK AO2
KM25 152035Z AUTO 23006KT 10SM CLR 06/M03 A3012 RMK AO2
KM25 152015Z AUTO 23007KT 10SM CLR 06/M03 A3012 RMK AO2
KM25 151955Z AUTO 25009G14KT 10SM CLR 06/M03 A3012 RMK AO2
KM25 151935Z AUTO 22009G15KT 10SM CLR 06/M03 A3013 RMK AO2
KM25 151915Z AUTO 27009KT 10SM CLR 05/M03 A3013 RMK AO2
KM25 151855Z AUTO 25008KT 200V270 10SM CLR 05/M03 A3013 RMK AO2
KM25 151835Z AUTO 25006KT 10SM CLR 05/M03 A3014 RMK AO2
KM25 151815Z AUTO 25005KT 10SM CLR 05/M03 A3014 RMK AO2
KM25 151755Z AUTO 27007KT 10SM CLR 04/M04 A3015 RMK AO2
KM25 151735Z AUTO 22005KT 10SM CLR 03/M04 A3016 RMK AO2
KM25 151715Z AUTO 24006KT 10SM CLR 03/M04 A3018 RMK AO2
KM25 151655Z AUTO 24004KT 10SM CLR 02/M04 A3019 RMK AO2
KM25 151635Z AUTO 22006KT 10SM CLR 02/M04 A3020 RMK AO2
KM25 151615Z AUTO 24003KT 10SM CLR 02/M05 A3021 RMK AO2
KM25 151555Z AUTO 24005KT 10SM SCT035 01/M05 A3021 RMK AO2
KM25 151535Z AUTO 00000KT 10SM OVC035 01/M05 A3021 RMK AO2
KM25 151515Z AUTO 00000KT 10SM OVC033 00/M05 A3019 RMK AO2
KM25 151455Z AUTO 27003KT 10SM OVC033 00/M05 A3020 RMK AO2
KM25 151435Z AUTO 28006KT 10SM OVC035 00/M05 A3020 RMK AO2
KM25 151415Z AUTO 31004KT 10SM OVC035 00/M05 A3019 RMK AO2
KM25 151355Z AUTO 32004KT 10SM OVC035 00/M05 A3018 RMK AO2
KM25 151335Z AUTO 32004KT 10SM OVC033 00/M06 A3018 RMK AO2
KM25 151315Z AUTO 31010KT 10SM OVC031 00/M06 A3017 RMK AO2
KM25 151255Z AUTO 33011G14KT 10SM OVC029 00/M05 A3016 RMK AO2
KM25 151235Z AUTO 28005KT 10SM OVC031 00/M05 A3015 RMK AO2
KM25 151215Z AUTO 27005KT 10SM OVC031 00/M05 A3015 RMK AO2
KM25 151155Z AUTO 28005KT 10SM OVC031 00/M05 A3014 RMK AO2
KM25 151135Z AUTO 28003KT 10SM OVC031 00/M04 A3013 RMK AO2
KM25 151115Z AUTO 29004KT 10SM OVC033 00/M04 A3012 RMK AO2
KM25 151055Z AUTO 28004KT 10SM OVC033 00/M04 A3012 RMK AO2
KM25 151035Z AUTO 00000KT 10SM OVC033 00/M04 A3012 RMK AO2
KM25 151015Z AUTO 30003KT 10SM OVC033 00/M04 A3011 RMK AO2
KM25 150955Z AUTO 00000KT 10SM OVC033 00/M05 A3012 RMK AO2
KM25 150935Z AUTO 00000KT 10SM OVC033 00/M05 A3011 RMK AO2
KM25 150915Z AUTO 30003KT 10SM OVC033 00/M04 A3012 RMK AO2
KM25 150855Z AUTO 00000KT 10SM OVC033 00/M05 A3013 RMK AO2
KM25 150835Z AUTO 30003KT 10SM OVC033 00/M05 A3012 RMK AO2